createdAt,value
2022-10-01T00:00:48.395Z,65.70
2022-10-01T00:03:50.384Z,65.62
2022-10-01T00:06:51.848Z,65.26
2022-10-01T00:09:53.247Z,65.36
2022-10-01T00:12:54.640Z,65.27
2022-10-01T00:15:56.654Z,65.29
2022-10-01T00:19:00.265Z,64.53
2022-10-01T00:22:02.010Z,64.67
2022-10-01T00:25:05.069Z,64.18
2022-10-01T00:28:06.936Z,65.04
2022-10-01T00:31:10.100Z,65.05
2022-10-01T00:34:13.418Z,65.15
2022-10-01T00:37:15.924Z,64.93
2022-10-01T00:40:19.537Z,64.84
2022-10-01T00:43:26.874Z,64.78
2022-10-01T00:46:37.856Z,64.26
2022-10-01T00:49:41.278Z,64.32
2022-10-01T00:52:47.734Z,63.77
2022-10-01T00:55:55.133Z,63.92
2022-10-01T00:58:57.288Z,63.51
2022-10-01T01:01:59.569Z,63.80
2022-10-01T01:05:01.327Z,63.99
2022-10-01T01:08:03.800Z,63.19
2022-10-01T01:11:15.171Z,63.08
2022-10-01T01:14:45.495Z,63.25
2022-10-01T01:17:57.587Z,62.93
2022-10-01T01:21:20.392Z,63.27
2022-10-01T01:24:43.938Z,63.24
2022-10-01T01:28:04.001Z,63.36
2022-10-01T01:31:09.183Z,62.73
2022-10-01T01:34:14.060Z,62.40
2022-10-01T01:37:19.188Z,61.94
2022-10-01T01:40:21.278Z,62.36
2022-10-01T01:43:37.992Z,62.04
2022-10-01T01:46:44.085Z,62.36
2022-10-01T01:49:46.010Z,61.97
2022-10-01T01:52:47.454Z,61.61
2022-10-01T01:55:49.870Z,62.10
2022-10-01T01:58:53.895Z,61.87
2022-10-01T02:01:55.416Z,62.04
2022-10-01T02:05:01.975Z,62.03
2022-10-01T02:08:27.891Z,62.19
2022-10-01T02:11:38.200Z,61.53
2022-10-01T02:15:00.461Z,61.47
2022-10-01T02:18:17.033Z,61.06
2022-10-01T02:21:27.428Z,61.13
2022-10-01T02:25:03.143Z,61.40
2022-10-01T02:28:09.676Z,60.95
2022-10-01T02:31:13.818Z,61.10
2022-10-01T02:34:20.227Z,60.77
2022-10-01T02:37:25.369Z,60.92
2022-10-01T02:40:33.482Z,60.51
2022-10-01T02:43:42.744Z,60.37
2022-10-01T02:46:52.622Z,60.52
2022-10-01T02:49:54.433Z,60.28
2022-10-01T02:53:02.334Z,60.65
2022-10-01T02:56:05.967Z,61.49
2022-10-01T02:59:08.124Z,61.32
2022-10-01T03:02:10.007Z,61.50
2022-10-01T03:05:11.469Z,61.80
2022-10-01T03:08:12.877Z,61.18
2022-10-01T03:11:16.055Z,61.01
2022-10-01T03:14:17.448Z,60.94
2022-10-01T03:17:18.964Z,61.75
2022-10-01T03:20:21.063Z,61.85
2022-10-01T03:23:22.581Z,61.97
2022-10-01T03:26:24.007Z,61.46
2022-10-01T03:29:26.307Z,61.57
2022-10-01T03:32:27.668Z,62.26
2022-10-01T03:35:29.046Z,61.30
2022-10-01T03:38:31.228Z,60.97
2022-10-01T03:41:32.992Z,61.24
2022-10-01T03:44:34.756Z,61.15
2022-10-01T03:47:36.218Z,61.52
2022-10-01T03:50:37.836Z,60.47
2022-10-01T03:53:39.271Z,59.92
2022-10-01T03:56:42.519Z,60.37
2022-10-01T03:59:43.900Z,60.09
2022-10-01T04:02:45.423Z,59.75
2022-10-01T04:05:47.194Z,59.09
2022-10-01T04:08:51.364Z,59.06
2022-10-01T04:11:52.819Z,58.92
2022-10-01T04:14:54.207Z,58.43
2022-10-01T04:17:55.677Z,58.19
2022-10-01T04:20:57.848Z,57.93
2022-10-01T04:23:59.654Z,58.00
2022-10-01T04:27:01.123Z,57.16
2022-10-01T04:30:02.771Z,56.82
2022-10-01T04:33:05.538Z,56.70
2022-10-01T04:36:07.100Z,56.68
2022-10-01T04:39:08.563Z,56.94
2022-10-01T04:42:10.039Z,57.34
2022-10-01T04:45:13.413Z,58.61
2022-10-01T04:48:14.799Z,59.45
2022-10-01T04:51:17.044Z,60.34
2022-10-01T04:54:18.452Z,61.15
2022-10-01T04:57:21.598Z,61.77
2022-10-01T05:00:25.767Z,62.73
2022-10-01T05:03:28.248Z,63.28
2022-10-01T05:06:29.656Z,64.02
2022-10-01T05:09:31.197Z,65.33
2022-10-01T05:12:32.577Z,66.03
2022-10-01T05:15:35.672Z,65.64
2022-10-01T05:18:37.382Z,66.63
2022-10-01T05:21:38.878Z,67.18
2022-10-01T05:24:40.425Z,66.70
2022-10-01T05:27:42.262Z,67.01
2022-10-01T05:30:43.666Z,67.98
2022-10-01T05:33:45.085Z,67.88
2022-10-01T05:36:46.516Z,68.39
2022-10-01T05:39:48.206Z,67.95
2022-10-01T05:42:49.817Z,68.02
2022-10-01T05:45:52.046Z,68.70
2022-10-01T05:48:53.517Z,67.96
2022-10-01T05:51:54.924Z,68.67
2022-10-01T05:54:57.252Z,68.69
2022-10-01T05:58:01.159Z,68.67
2022-10-01T06:01:03.990Z,68.92
2022-10-01T06:04:05.445Z,68.85
2022-10-01T06:07:06.842Z,69.43
2022-10-01T06:10:09.161Z,69.47
2022-10-01T06:13:11.422Z,69.22
2022-10-01T06:16:13.931Z,69.26
2022-10-01T06:19:17.485Z,68.97
2022-10-01T06:22:19.073Z,69.40
2022-10-01T06:25:20.556Z,69.29
2022-10-01T06:28:22.037Z,68.70
2022-10-01T06:31:23.905Z,68.93
2022-10-01T06:34:26.537Z,68.25
2022-10-01T06:37:28.058Z,68.22
2022-10-01T06:40:30.481Z,68.66
2022-10-01T06:43:33.027Z,68.18
2022-10-01T06:46:34.476Z,68.27
2022-10-01T06:49:35.904Z,68.00
2022-10-01T06:52:50.099Z,68.08
2022-10-01T06:55:51.588Z,67.29
2022-10-01T06:58:53.104Z,68.29
2022-10-01T07:01:56.522Z,68.49
2022-10-01T07:04:59.020Z,69.13
2022-10-01T07:08:00.788Z,68.60
2022-10-01T07:11:02.841Z,68.31
2022-10-01T07:14:04.366Z,68.13
2022-10-01T07:17:05.808Z,67.51
2022-10-01T07:20:07.929Z,67.45
2022-10-01T07:23:14.484Z,68.36
2022-10-01T07:26:15.913Z,67.99
2022-10-01T07:29:17.530Z,68.44
2022-10-01T07:32:19.327Z,67.85
2022-10-01T07:35:21.131Z,68.20
2022-10-01T07:38:22.569Z,68.81
2022-10-01T07:41:24.048Z,68.30
2022-10-01T07:44:27.758Z,68.10
2022-10-01T07:47:29.267Z,68.83
2022-10-01T07:50:30.777Z,68.44
2022-10-01T07:53:32.379Z,68.76
2022-10-01T07:56:33.764Z,68.59
2022-10-01T07:59:35.183Z,68.38
2022-10-01T08:02:37.552Z,68.01
2022-10-01T08:05:43.204Z,67.96
2022-10-01T08:08:44.763Z,68.19
2022-10-01T08:11:48.344Z,67.63
2022-10-01T08:14:49.823Z,67.74
2022-10-01T08:17:51.240Z,67.77
2022-10-01T08:20:52.759Z,67.97
2022-10-01T08:23:54.247Z,67.38
2022-10-01T08:26:56.391Z,67.51
2022-10-01T08:29:57.823Z,67.32
2022-10-01T08:33:00.846Z,67.67
2022-10-01T08:36:03.799Z,67.72
2022-10-01T08:39:05.384Z,68.69
2022-10-01T08:42:08.019Z,69.43
2022-10-01T08:45:36.625Z,69.19
2022-10-01T08:48:47.531Z,69.47
2022-10-01T08:51:57.740Z,69.83
2022-10-01T08:55:06.772Z,70.19
2022-10-01T08:58:12.692Z,70.75
2022-10-01T09:01:14.216Z,70.68
2022-10-01T09:04:15.802Z,70.87
2022-10-01T09:08:03.926Z,70.09
2022-10-01T09:11:12.347Z,69.89
2022-10-01T09:14:26.171Z,70.32
2022-10-01T09:17:48.106Z,70.00
2022-10-01T09:20:59.997Z,70.28
2022-10-01T09:24:14.997Z,70.46
2022-10-01T09:27:19.033Z,70.13
2022-10-01T09:30:23.398Z,69.83
2022-10-01T09:33:36.307Z,69.95
2022-10-01T09:37:04.589Z,68.92
2022-10-01T09:40:37.038Z,69.27
2022-10-01T09:43:40.652Z,69.40
2022-10-01T09:46:43.103Z,69.08
2022-10-01T09:49:46.169Z,68.85
2022-10-01T09:52:50.039Z,69.77
2022-10-01T09:55:59.524Z,69.92
2022-10-01T09:59:06.948Z,70.17
2022-10-01T10:02:37.500Z,69.82
2022-10-01T10:05:41.795Z,69.89
2022-10-01T10:08:45.602Z,69.22
2022-10-01T10:11:49.031Z,69.98
2022-10-01T10:14:50.566Z,69.13
2022-10-01T10:17:52.759Z,69.45
2022-10-01T10:20:54.673Z,69.49
2022-10-01T10:23:59.287Z,69.38
2022-10-01T10:27:03.317Z,69.13
2022-10-01T10:30:16.180Z,68.81
2022-10-01T10:33:20.733Z,68.93
2022-10-01T10:36:28.938Z,68.47
2022-10-01T10:39:39.693Z,68.04
2022-10-01T10:42:48.476Z,68.89
2022-10-01T10:45:57.294Z,68.23
2022-10-01T10:49:08.753Z,68.37
2022-10-01T10:52:33.477Z,68.25
2022-10-01T10:55:34.898Z,68.48
2022-10-01T10:58:42.482Z,68.00
2022-10-01T11:01:45.967Z,68.49
2022-10-01T11:04:47.496Z,68.04
2022-10-01T11:07:53.247Z,67.87
2022-10-01T11:11:13.124Z,67.91
2022-10-01T11:14:32.604Z,67.93
2022-10-01T11:18:01.486Z,67.85
2022-10-01T11:21:12.760Z,67.99
2022-10-01T11:24:35.987Z,67.72
2022-10-01T11:27:48.408Z,67.93
2022-10-01T11:30:59.041Z,68.00
2022-10-01T11:34:15.917Z,67.88
2022-10-01T11:37:48.353Z,67.45
2022-10-01T11:41:01.655Z,67.38
2022-10-01T11:44:35.736Z,67.88
2022-10-01T11:47:43.758Z,67.26
2022-10-01T11:50:49.161Z,66.64
2022-10-01T11:54:03.535Z,66.70
2022-10-01T11:57:23.635Z,66.93
2022-10-01T12:00:27.348Z,67.09
2022-10-01T12:03:37.519Z,66.90
2022-10-01T12:06:54.199Z,67.03
2022-10-01T12:10:22.685Z,67.51
2022-10-01T12:13:40.121Z,66.98
2022-10-01T12:16:50.300Z,66.77
2022-10-01T12:19:54.972Z,66.79
2022-10-01T12:22:59.010Z,67.09
2022-10-01T12:26:18.247Z,66.04
2022-10-01T12:29:25.257Z,66.30
2022-10-01T12:33:02.017Z,65.81
2022-10-01T12:36:19.232Z,66.08
2022-10-01T12:40:09.064Z,65.08
2022-10-01T12:43:42.614Z,65.95
2022-10-01T12:47:14.130Z,64.90
2022-10-01T12:50:38.321Z,65.57
2022-10-01T12:53:54.828Z,65.67
2022-10-01T12:57:04.294Z,65.52
2022-10-01T13:00:13.349Z,65.74
2022-10-01T13:03:32.649Z,66.08
2022-10-01T13:07:20.424Z,65.48
2022-10-01T13:10:53.985Z,65.93
2022-10-01T13:13:56.875Z,65.87
2022-10-01T13:17:30.400Z,66.11
2022-10-01T13:21:11.533Z,65.83
2022-10-01T13:24:27.241Z,65.99
2022-10-01T13:27:45.286Z,66.28
2022-10-01T13:30:59.054Z,66.11
2022-10-01T13:34:01.689Z,65.94
2022-10-01T13:37:18.159Z,66.34
2022-10-01T13:40:34.756Z,65.92
2022-10-01T13:43:36.373Z,65.97
2022-10-01T13:46:52.317Z,65.27
2022-10-01T13:50:24.300Z,65.99
2022-10-01T13:53:27.704Z,66.04
2022-10-01T13:56:36.784Z,66.17
2022-10-01T13:59:38.890Z,66.43
2022-10-01T14:02:57.130Z,66.51
2022-10-01T14:06:00.884Z,66.78
2022-10-01T14:09:23.725Z,66.99
2022-10-01T14:12:49.890Z,67.02
2022-10-01T14:15:59.642Z,66.83
2022-10-01T14:19:01.451Z,67.15
2022-10-01T14:22:42.032Z,67.07
2022-10-01T14:26:04.644Z,66.93
2022-10-01T14:29:24.712Z,67.43
2022-10-01T14:32:56.732Z,67.20
2022-10-01T14:35:58.126Z,67.46
2022-10-01T14:39:12.488Z,67.28
2022-10-01T14:42:17.608Z,67.43
2022-10-01T14:45:19.621Z,67.31
2022-10-01T14:48:22.865Z,67.61
2022-10-01T14:51:28.111Z,67.81
2022-10-01T14:54:33.575Z,67.87
2022-10-01T14:57:38.991Z,67.88
2022-10-01T15:00:50.236Z,67.75
2022-10-01T15:03:52.676Z,67.98
2022-10-01T15:06:54.200Z,67.80
2022-10-01T15:10:05.934Z,67.74
2022-10-01T15:13:07.527Z,67.92
2022-10-01T15:16:15.618Z,67.44
2022-10-01T15:19:20.425Z,67.54
2022-10-01T15:22:27.605Z,67.26
2022-10-01T15:25:31.584Z,66.83
2022-10-01T15:28:34.922Z,67.21
2022-10-01T15:31:37.203Z,66.78
2022-10-01T15:34:40.392Z,66.98
2022-10-01T15:37:45.667Z,66.49
2022-10-01T15:41:05.015Z,66.34
2022-10-01T15:44:45.280Z,66.39
2022-10-01T15:47:52.110Z,66.17
2022-10-01T15:51:03.286Z,66.22
2022-10-01T15:54:08.314Z,66.33
2022-10-01T15:57:17.738Z,66.05
2022-10-01T16:00:28.230Z,66.11
2022-10-01T16:03:33.929Z,66.00
2022-10-01T16:06:39.687Z,65.72
2022-10-01T16:09:51.621Z,65.27
2022-10-01T16:12:53.161Z,65.39
2022-10-01T16:16:08.994Z,65.91
2022-10-01T16:19:30.316Z,65.53
2022-10-01T16:22:33.806Z,65.52
2022-10-01T16:25:43.856Z,65.41
2022-10-01T16:28:45.472Z,65.84
2022-10-01T16:31:47.137Z,65.77
2022-10-01T16:34:49.077Z,65.66
2022-10-01T16:37:53.310Z,65.66
2022-10-01T16:40:54.903Z,65.80
2022-10-01T16:43:57.486Z,65.72
2022-10-01T16:46:59.118Z,65.42
2022-10-01T16:50:00.509Z,65.65
2022-10-01T16:53:03.051Z,65.86
2022-10-01T16:56:04.541Z,65.52
2022-10-01T16:59:05.996Z,65.72
2022-10-01T17:02:14.116Z,65.56
2022-10-01T17:05:20.118Z,65.37
2022-10-01T17:08:21.759Z,65.34
2022-10-01T17:11:25.424Z,65.78
2022-10-01T17:14:27.717Z,64.94
2022-10-01T17:17:29.097Z,64.99
2022-10-01T17:20:31.168Z,65.01
2022-10-01T17:23:34.761Z,65.06
2022-10-01T17:26:38.384Z,65.60
2022-10-01T17:29:39.963Z,65.04
2022-10-01T17:32:42.997Z,65.00
2022-10-01T17:35:46.741Z,65.16
2022-10-01T17:38:48.199Z,65.13
2022-10-01T17:41:49.625Z,65.11
2022-10-01T17:44:51.595Z,65.26
2022-10-01T17:47:53.267Z,65.31
2022-10-01T17:50:59.494Z,65.41
2022-10-01T17:54:03.128Z,65.23
2022-10-01T17:57:04.919Z,65.36
2022-10-01T18:00:07.017Z,65.40
2022-10-01T18:03:13.417Z,65.64
2022-10-01T18:06:16.047Z,65.45
2022-10-01T18:09:17.647Z,65.43
2022-10-01T18:12:19.598Z,65.50
2022-10-01T18:15:23.984Z,65.14
2022-10-01T18:19:51.268Z,65.56
2022-10-01T18:21:47.718Z,65.28
2022-10-01T18:24:49.247Z,65.02
2022-10-01T18:27:50.714Z,65.00
2022-10-01T18:31:12.398Z,65.00
2022-10-01T18:34:38.547Z,64.72
2022-10-01T18:37:46.768Z,64.89
2022-10-01T18:40:56.567Z,65.42
2022-10-01T18:43:58.308Z,65.04
2022-10-01T18:47:17.180Z,65.18
2022-10-01T18:50:27.865Z,65.26
2022-10-01T18:53:41.880Z,65.30
2022-10-01T18:57:05.260Z,64.76
2022-10-01T19:00:08.500Z,64.84
2022-10-01T19:03:38.599Z,65.24
2022-10-01T19:07:02.387Z,65.00
2022-10-01T19:10:29.760Z,64.78
2022-10-01T19:13:48.872Z,64.63
2022-10-01T19:17:14.963Z,65.22
2022-10-01T19:20:45.916Z,64.66
2022-10-01T19:24:06.437Z,64.59
2022-10-01T19:27:26.561Z,64.58
2022-10-01T19:30:36.633Z,64.57
2022-10-01T19:33:50.445Z,64.64
2022-10-01T19:37:02.032Z,64.76
2022-10-01T19:40:16.897Z,64.65
2022-10-01T19:43:37.798Z,64.75
2022-10-01T19:46:45.574Z,65.23
2022-10-01T19:49:50.090Z,65.28
2022-10-01T19:52:55.265Z,65.14
2022-10-01T19:56:00.905Z,64.80
2022-10-01T19:59:10.718Z,64.35
2022-10-01T20:02:46.238Z,64.13
2022-10-01T20:05:55.508Z,64.04
2022-10-01T20:09:12.948Z,63.98
2022-10-01T20:12:49.895Z,63.91
2022-10-01T20:16:25.492Z,63.69
2022-10-01T20:19:39.251Z,63.65
2022-10-01T20:23:27.324Z,63.61
2022-10-01T20:26:50.798Z,63.23
2022-10-01T20:30:04.371Z,63.54
2022-10-01T20:33:20.032Z,63.15
2022-10-01T20:36:49.359Z,62.96
2022-10-01T20:39:58.063Z,62.83
2022-10-01T20:43:33.654Z,62.87
2022-10-01T20:46:39.528Z,62.87
2022-10-01T20:49:53.009Z,62.66
2022-10-01T20:53:03.999Z,62.76
2022-10-01T20:56:20.856Z,62.84
2022-10-01T20:59:32.990Z,62.65
2022-10-01T21:02:42.265Z,62.47
2022-10-01T21:06:03.697Z,62.75
2022-10-01T21:09:20.334Z,62.67
2022-10-01T21:12:27.103Z,62.82
2022-10-01T21:15:57.946Z,62.79
2022-10-01T21:19:30.775Z,63.30
2022-10-01T21:22:54.266Z,63.33
2022-10-01T21:26:18.640Z,63.52
2022-10-01T21:29:28.053Z,64.10
2022-10-01T21:32:49.806Z,63.81
2022-10-01T21:35:56.633Z,63.79
2022-10-01T21:39:09.205Z,64.16
2022-10-01T21:42:16.719Z,64.05
2022-10-01T21:45:52.907Z,63.81
2022-10-01T21:49:20.056Z,63.68
2022-10-01T21:52:33.703Z,63.76
2022-10-01T21:55:44.221Z,64.03
2022-10-01T21:59:17.731Z,64.19
2022-10-01T22:02:53.479Z,64.35
2022-10-01T22:06:34.979Z,64.50
2022-10-01T22:10:01.552Z,64.24
2022-10-01T22:13:06.559Z,64.48
2022-10-01T22:16:14.506Z,65.01
2022-10-01T22:19:27.510Z,65.04
2022-10-01T22:22:33.825Z,64.98
2022-10-01T22:25:43.412Z,65.00
2022-10-01T22:28:51.736Z,65.05
2022-10-01T22:31:57.958Z,65.35
2022-10-01T22:35:04.463Z,64.86
2022-10-01T22:38:14.959Z,65.31
2022-10-01T22:41:34.880Z,65.35
2022-10-01T22:44:36.669Z,65.21
2022-10-01T22:47:52.579Z,65.38
2022-10-01T22:51:19.436Z,65.31
2022-10-01T22:54:23.934Z,65.35
2022-10-01T22:58:11.328Z,65.12
2022-10-01T23:01:24.950Z,64.79
2022-10-01T23:04:43.034Z,64.95
2022-10-01T23:08:07.774Z,65.47
2022-10-01T23:11:21.543Z,65.06
2022-10-01T23:14:43.467Z,65.12
2022-10-01T23:18:04.692Z,65.52
2022-10-01T23:21:11.652Z,65.37
2022-10-01T23:24:28.522Z,65.52
2022-10-01T23:27:53.112Z,65.38
2022-10-01T23:31:04.330Z,65.34
2022-10-01T23:34:24.682Z,65.51
2022-10-01T23:37:29.273Z,65.23
2022-10-01T23:40:34.381Z,65.30
2022-10-01T23:43:43.199Z,65.42
2022-10-01T23:46:50.217Z,65.46
2022-10-01T23:49:57.406Z,65.55
2022-10-01T23:53:20.894Z,65.40
2022-10-01T23:56:45.632Z,65.64
